sensor_id;sensor_type;location;lat;lon;timestamp;P1;durP1;ratioP1;P2;durP2;ratioP2
4500;SDS011;2263;54.654;9.410;2022-11-30T00:01:19;62.00;;;31.17;;
4500;SDS011;2263;54.654;9.410;2022-11-30T00:03:48;55.77;;;29.90;;
4500;SDS011;2263;54.654;9.410;2022-11-30T00:06:18;63.33;;;32.60;;
4500;SDS011;2263;54.654;9.410;2022-11-30T00:08:51;65.13;;;32.83;;
4500;SDS011;2263;54.654;9.410;2022-11-30T00:11:23;59.23;;;28.93;;
4500;SDS011;2263;54.654;9.410;2022-11-30T00:13:51;70.33;;;32.23;;
4500;SDS011;2263;54.654;9.410;2022-11-30T00:16:19;60.47;;;31.50;;
4500;SDS011;2263;54.654;9.410;2022-11-30T00:18:46;57.90;;;31.83;;
4500;SDS011;2263;54.654;9.410;2022-11-30T00:21:13;64.43;;;32.00;;
4500;SDS011;2263;54.654;9.410;2022-11-30T00:23:41;64.50;;;32.30;;
4500;SDS011;2263;54.654;9.410;2022-11-30T00:26:11;64.80;;;31.60;;
4500;SDS011;2263;54.654;9.410;2022-11-30T00:28:39;69.57;;;31.50;;
4500;SDS011;2263;54.654;9.410;2022-11-30T00:31:09;57.40;;;30.00;;
4500;SDS011;2263;54.654;9.410;2022-11-30T00:33:37;61.10;;;29.87;;
4500;SDS011;2263;54.654;9.410;2022-11-30T00:36:10;71.27;;;33.60;;
4500;SDS011;2263;54.654;9.410;2022-11-30T00:38:41;62.10;;;30.93;;
4500;SDS011;2263;54.654;9.410;2022-11-30T00:41:09;63.60;;;32.13;;
4500;SDS011;2263;54.654;9.410;2022-11-30T00:43:36;62.67;;;31.60;;
4500;SDS011;2263;54.654;9.410;2022-11-30T00:46:03;67.17;;;32.20;;
4500;SDS011;2263;54.654;9.410;2022-11-30T00:48:31;56.47;;;30.20;;
4500;SDS011;2263;54.654;9.410;2022-11-30T00:50:58;55.93;;;30.03;;
4500;SDS011;2263;54.654;9.410;2022-11-30T00:53:26;68.23;;;31.63;;
4500;SDS011;2263;54.654;9.410;2022-11-30T00:55:53;68.97;;;32.23;;
4500;SDS011;2263;54.654;9.410;2022-11-30T00:58:20;62.30;;;31.10;;
4500;SDS011;2263;54.654;9.410;2022-11-30T01:00:48;64.10;;;30.00;;
4500;SDS011;2263;54.654;9.410;2022-11-30T01:03:15;64.13;;;31.60;;
4500;SDS011;2263;54.654;9.410;2022-11-30T01:05:43;66.53;;;32.93;;
4500;SDS011;2263;54.654;9.410;2022-11-30T01:08:10;67.97;;;31.93;;
4500;SDS011;2263;54.654;9.410;2022-11-30T01:10:39;59.10;;;29.60;;
4500;SDS011;2263;54.654;9.410;2022-11-30T01:13:09;62.40;;;32.43;;
4500;SDS011;2263;54.654;9.410;2022-11-30T01:15:39;70.83;;;31.73;;
4500;SDS011;2263;54.654;9.410;2022-11-30T01:18:09;69.30;;;31.90;;
4500;SDS011;2263;54.654;9.410;2022-11-30T01:20:40;59.73;;;30.60;;
4500;SDS011;2263;54.654;9.410;2022-11-30T01:23:09;59.33;;;32.37;;
4500;SDS011;2263;54.654;9.410;2022-11-30T01:25:36;62.80;;;32.83;;
4500;SDS011;2263;54.654;9.410;2022-11-30T01:28:04;59.13;;;30.17;;
4500;SDS011;2263;54.654;9.410;2022-11-30T01:30:31;61.43;;;31.17;;
4500;SDS011;2263;54.654;9.410;2022-11-30T01:33:02;67.43;;;32.47;;
4500;SDS011;2263;54.654;9.410;2022-11-30T01:35:29;63.63;;;30.57;;
4500;SDS011;2263;54.654;9.410;2022-11-30T01:37:57;65.60;;;31.47;;
4500;SDS011;2263;54.654;9.410;2022-11-30T01:40:24;63.27;;;30.90;;
4500;SDS011;2263;54.654;9.410;2022-11-30T01:42:51;63.97;;;30.97;;
4500;SDS011;2263;54.654;9.410;2022-11-30T01:45:18;59.87;;;27.90;;
4500;SDS011;2263;54.654;9.410;2022-11-30T01:47:46;59.93;;;31.43;;
4500;SDS011;2263;54.654;9.410;2022-11-30T01:50:18;60.90;;;29.87;;
4500;SDS011;2263;54.654;9.410;2022-11-30T01:52:50;57.70;;;30.93;;
4500;SDS011;2263;54.654;9.410;2022-11-30T01:55:21;57.33;;;31.13;;
4500;SDS011;2263;54.654;9.410;2022-11-30T01:57:51;60.40;;;30.43;;
4500;SDS011;2263;54.654;9.410;2022-11-30T02:00:26;61.00;;;29.80;;
4500;SDS011;2263;54.654;9.410;2022-11-30T02:05:39;63.77;;;30.10;;
4500;SDS011;2263;54.654;9.410;2022-11-30T02:08:08;61.37;;;31.43;;
4500;SDS011;2263;54.654;9.410;2022-11-30T02:10:41;59.43;;;29.43;;
4500;SDS011;2263;54.654;9.410;2022-11-30T02:13:26;63.93;;;29.47;;
4500;SDS011;2263;54.654;9.410;2022-11-30T02:29:48;67.90;;;30.20;;
4500;SDS011;2263;54.654;9.410;2022-11-30T02:32:28;57.77;;;28.60;;
4500;SDS011;2263;54.654;9.410;2022-11-30T02:35:02;69.03;;;30.50;;
4500;SDS011;2263;54.654;9.410;2022-11-30T02:37:31;54.50;;;28.67;;
4500;SDS011;2263;54.654;9.410;2022-11-30T02:40:00;57.83;;;29.43;;
4500;SDS011;2263;54.654;9.410;2022-11-30T02:42:32;54.93;;;26.97;;
4500;SDS011;2263;54.654;9.410;2022-11-30T02:44:59;60.77;;;29.70;;
4500;SDS011;2263;54.654;9.410;2022-11-30T02:47:27;60.33;;;28.73;;
4500;SDS011;2263;54.654;9.410;2022-11-30T02:50:06;52.97;;;26.80;;
4500;SDS011;2263;54.654;9.410;2022-11-30T02:52:43;55.23;;;28.70;;
4500;SDS011;2263;54.654;9.410;2022-11-30T02:55:13;59.93;;;29.47;;
4500;SDS011;2263;54.654;9.410;2022-11-30T02:57:42;62.60;;;28.37;;
4500;SDS011;2263;54.654;9.410;2022-11-30T03:00:10;57.93;;;28.70;;
4500;SDS011;2263;54.654;9.410;2022-11-30T03:02:38;57.27;;;29.90;;
4500;SDS011;2263;54.654;9.410;2022-11-30T03:05:06;57.90;;;28.70;;
4500;SDS011;2263;54.654;9.410;2022-11-30T03:07:34;61.27;;;32.23;;
4500;SDS011;2263;54.654;9.410;2022-11-30T03:10:02;61.70;;;30.27;;
4500;SDS011;2263;54.654;9.410;2022-11-30T03:12:30;62.17;;;30.10;;
4500;SDS011;2263;54.654;9.410;2022-11-30T03:15:00;59.23;;;26.80;;
4500;SDS011;2263;54.654;9.410;2022-11-30T03:17:27;62.23;;;30.87;;
4500;SDS011;2263;54.654;9.410;2022-11-30T03:19:54;63.00;;;30.13;;
4500;SDS011;2263;54.654;9.410;2022-11-30T03:22:21;66.10;;;31.77;;
4500;SDS011;2263;54.654;9.410;2022-11-30T03:24:49;60.10;;;28.90;;
4500;SDS011;2263;54.654;9.410;2022-11-30T03:27:16;59.67;;;29.67;;
4500;SDS011;2263;54.654;9.410;2022-11-30T03:29:43;59.60;;;30.50;;
4500;SDS011;2263;54.654;9.410;2022-11-30T03:32:10;60.20;;;29.47;;
4500;SDS011;2263;54.654;9.410;2022-11-30T03:34:38;62.80;;;31.27;;
4500;SDS011;2263;54.654;9.410;2022-11-30T03:37:05;63.10;;;32.33;;
4500;SDS011;2263;54.654;9.410;2022-11-30T03:39:32;64.83;;;32.07;;
4500;SDS011;2263;54.654;9.410;2022-11-30T03:42:02;66.13;;;31.23;;
4500;SDS011;2263;54.654;9.410;2022-11-30T03:44:30;71.27;;;31.13;;
4500;SDS011;2263;54.654;9.410;2022-11-30T03:46:57;64.37;;;30.80;;
4500;SDS011;2263;54.654;9.410;2022-11-30T03:49:24;60.50;;;29.63;;
4500;SDS011;2263;54.654;9.410;2022-11-30T03:51:51;66.50;;;31.70;;
4500;SDS011;2263;54.654;9.410;2022-11-30T03:54:18;69.57;;;31.53;;
4500;SDS011;2263;54.654;9.410;2022-11-30T03:56:47;63.10;;;29.80;;
4500;SDS011;2263;54.654;9.410;2022-11-30T03:59:14;72.97;;;34.87;;
4500;SDS011;2263;54.654;9.410;2022-11-30T04:01:44;72.73;;;33.63;;
4500;SDS011;2263;54.654;9.410;2022-11-30T04:04:11;66.00;;;35.60;;
4500;SDS011;2263;54.654;9.410;2022-11-30T04:06:38;71.70;;;32.00;;
4500;SDS011;2263;54.654;9.410;2022-11-30T04:09:06;75.27;;;32.30;;
4500;SDS011;2263;54.654;9.410;2022-11-30T04:11:34;71.83;;;34.33;;
4500;SDS011;2263;54.654;9.410;2022-11-30T04:14:01;66.63;;;32.13;;
4500;SDS011;2263;54.654;9.410;2022-11-30T04:16:28;63.03;;;31.57;;
4500;SDS011;2263;54.654;9.410;2022-11-30T04:18:56;62.63;;;32.43;;
4500;SDS011;2263;54.654;9.410;2022-11-30T04:21:23;66.10;;;31.40;;
4500;SDS011;2263;54.654;9.410;2022-11-30T04:23:50;70.20;;;34.33;;
4500;SDS011;2263;54.654;9.410;2022-11-30T04:26:17;68.50;;;32.97;;
4500;SDS011;2263;54.654;9.410;2022-11-30T04:28:44;75.17;;;33.07;;
4500;SDS011;2263;54.654;9.410;2022-11-30T04:31:12;94.43;;;39.70;;
4500;SDS011;2263;54.654;9.410;2022-11-30T04:33:39;185.97;;;85.57;;
4500;SDS011;2263;54.654;9.410;2022-11-30T04:36:06;136.53;;;66.50;;
4500;SDS011;2263;54.654;9.410;2022-11-30T04:38:41;127.70;;;63.90;;
4500;SDS011;2263;54.654;9.410;2022-11-30T04:41:08;118.80;;;61.97;;
4500;SDS011;2263;54.654;9.410;2022-11-30T04:43:35;122.93;;;60.27;;
4500;SDS011;2263;54.654;9.410;2022-11-30T04:46:03;124.37;;;56.97;;
4500;SDS011;2263;54.654;9.410;2022-11-30T04:48:31;114.73;;;54.77;;
4500;SDS011;2263;54.654;9.410;2022-11-30T04:50:59;114.73;;;54.90;;
4500;SDS011;2263;54.654;9.410;2022-11-30T04:53:27;97.53;;;48.30;;
4500;SDS011;2263;54.654;9.410;2022-11-30T04:55:55;92.70;;;49.70;;
4500;SDS011;2263;54.654;9.410;2022-11-30T04:58:22;94.60;;;45.80;;
4500;SDS011;2263;54.654;9.410;2022-11-30T05:00:52;104.47;;;47.80;;
4500;SDS011;2263;54.654;9.410;2022-11-30T05:03:20;99.27;;;49.00;;
4500;SDS011;2263;54.654;9.410;2022-11-30T05:05:47;95.27;;;46.40;;
4500;SDS011;2263;54.654;9.410;2022-11-30T05:08:14;91.77;;;44.13;;
4500;SDS011;2263;54.654;9.410;2022-11-30T05:10:41;91.80;;;44.17;;
4500;SDS011;2263;54.654;9.410;2022-11-30T05:13:08;92.60;;;43.57;;
4500;SDS011;2263;54.654;9.410;2022-11-30T05:15:35;91.90;;;44.07;;
4500;SDS011;2263;54.654;9.410;2022-11-30T05:18:03;88.00;;;41.50;;
4500;SDS011;2263;54.654;9.410;2022-11-30T05:20:30;90.77;;;43.07;;
4500;SDS011;2263;54.654;9.410;2022-11-30T05:22:57;78.53;;;39.53;;
4500;SDS011;2263;54.654;9.410;2022-11-30T05:25:24;81.23;;;38.30;;
4500;SDS011;2263;54.654;9.410;2022-11-30T05:27:51;78.67;;;38.90;;
4500;SDS011;2263;54.654;9.410;2022-11-30T05:30:18;80.53;;;38.70;;
4500;SDS011;2263;54.654;9.410;2022-11-30T05:32:46;84.83;;;39.03;;
4500;SDS011;2263;54.654;9.410;2022-11-30T05:35:13;85.97;;;39.60;;
4500;SDS011;2263;54.654;9.410;2022-11-30T05:37:40;81.40;;;40.50;;
4500;SDS011;2263;54.654;9.410;2022-11-30T05:40:07;85.50;;;40.23;;
4500;SDS011;2263;54.654;9.410;2022-11-30T05:42:35;81.30;;;37.50;;
4500;SDS011;2263;54.654;9.410;2022-11-30T05:45:02;78.10;;;37.90;;
4500;SDS011;2263;54.654;9.410;2022-11-30T05:47:31;72.27;;;35.57;;
4500;SDS011;2263;54.654;9.410;2022-11-30T05:49:59;75.43;;;35.43;;
4500;SDS011;2263;54.654;9.410;2022-11-30T05:52:26;63.87;;;33.13;;
4500;SDS011;2263;54.654;9.410;2022-11-30T05:54:53;80.13;;;38.60;;
4500;SDS011;2263;54.654;9.410;2022-11-30T05:57:20;76.57;;;38.10;;
4500;SDS011;2263;54.654;9.410;2022-11-30T05:59:47;80.30;;;35.07;;
4500;SDS011;2263;54.654;9.410;2022-11-30T06:02:15;78.10;;;35.43;;
4500;SDS011;2263;54.654;9.410;2022-11-30T06:04:42;77.43;;;38.70;;
4500;SDS011;2263;54.654;9.410;2022-11-30T06:07:09;87.50;;;37.83;;
4500;SDS011;2263;54.654;9.410;2022-11-30T06:09:39;74.67;;;35.43;;
4500;SDS011;2263;54.654;9.410;2022-11-30T06:12:09;73.10;;;36.87;;
4500;SDS011;2263;54.654;9.410;2022-11-30T06:14:36;69.87;;;34.83;;
4500;SDS011;2263;54.654;9.410;2022-11-30T06:17:03;76.10;;;33.23;;
4500;SDS011;2263;54.654;9.410;2022-11-30T06:19:31;76.97;;;35.60;;
4500;SDS011;2263;54.654;9.410;2022-11-30T06:22:01;74.17;;;35.67;;
4500;SDS011;2263;54.654;9.410;2022-11-30T06:24:28;68.73;;;35.03;;
4500;SDS011;2263;54.654;9.410;2022-11-30T06:26:55;62.10;;;31.73;;
4500;SDS011;2263;54.654;9.410;2022-11-30T06:29:22;72.23;;;35.30;;
4500;SDS011;2263;54.654;9.410;2022-11-30T06:31:50;68.17;;;34.47;;
4500;SDS011;2263;54.654;9.410;2022-11-30T06:34:17;84.23;;;35.13;;
4500;SDS011;2263;54.654;9.410;2022-11-30T06:36:45;73.80;;;34.33;;
4500;SDS011;2263;54.654;9.410;2022-11-30T06:39:12;79.97;;;35.97;;
4500;SDS011;2263;54.654;9.410;2022-11-30T06:41:39;76.07;;;34.73;;
4500;SDS011;2263;54.654;9.410;2022-11-30T06:44:10;71.13;;;33.37;;
4500;SDS011;2263;54.654;9.410;2022-11-30T06:46:37;71.17;;;32.93;;
4500;SDS011;2263;54.654;9.410;2022-11-30T06:49:04;69.00;;;33.17;;
4500;SDS011;2263;54.654;9.410;2022-11-30T06:51:33;70.03;;;33.93;;
4500;SDS011;2263;54.654;9.410;2022-11-30T06:54:00;72.10;;;34.90;;
4500;SDS011;2263;54.654;9.410;2022-11-30T06:56:27;65.10;;;33.53;;
4500;SDS011;2263;54.654;9.410;2022-11-30T06:58:54;58.70;;;33.30;;
4500;SDS011;2263;54.654;9.410;2022-11-30T07:01:22;69.00;;;33.53;;
4500;SDS011;2263;54.654;9.410;2022-11-30T07:03:49;65.40;;;32.27;;
4500;SDS011;2263;54.654;9.410;2022-11-30T07:06:16;66.70;;;33.23;;
4500;SDS011;2263;54.654;9.410;2022-11-30T07:08:43;70.70;;;34.60;;
4500;SDS011;2263;54.654;9.410;2022-11-30T07:11:11;74.70;;;32.73;;
4500;SDS011;2263;54.654;9.410;2022-11-30T07:13:38;76.83;;;34.77;;
4500;SDS011;2263;54.654;9.410;2022-11-30T07:16:06;77.60;;;32.47;;
4500;SDS011;2263;54.654;9.410;2022-11-30T07:18:36;74.33;;;33.93;;
4500;SDS011;2263;54.654;9.410;2022-11-30T07:21:03;71.37;;;31.80;;
4500;SDS011;2263;54.654;9.410;2022-11-30T07:23:32;71.63;;;33.10;;
4500;SDS011;2263;54.654;9.410;2022-11-30T07:26:22;76.63;;;38.00;;
4500;SDS011;2263;54.654;9.410;2022-11-30T07:28:50;71.67;;;35.60;;
4500;SDS011;2263;54.654;9.410;2022-11-30T07:31:25;72.30;;;34.23;;
4500;SDS011;2263;54.654;9.410;2022-11-30T07:33:57;69.30;;;31.00;;
4500;SDS011;2263;54.654;9.410;2022-11-30T07:36:25;77.40;;;34.37;;
4500;SDS011;2263;54.654;9.410;2022-11-30T07:38:54;75.67;;;36.03;;
4500;SDS011;2263;54.654;9.410;2022-11-30T07:41:21;79.43;;;33.97;;
4500;SDS011;2263;54.654;9.410;2022-11-30T07:43:49;63.67;;;30.97;;
4500;SDS011;2263;54.654;9.410;2022-11-30T07:46:16;76.00;;;32.80;;
4500;SDS011;2263;54.654;9.410;2022-11-30T07:48:44;74.60;;;35.43;;
4500;SDS011;2263;54.654;9.410;2022-11-30T07:51:13;64.57;;;33.50;;
4500;SDS011;2263;54.654;9.410;2022-11-30T07:53:44;71.83;;;32.80;;
4500;SDS011;2263;54.654;9.410;2022-11-30T07:56:13;71.27;;;32.83;;
4500;SDS011;2263;54.654;9.410;2022-11-30T07:58:43;66.33;;;31.60;;
4500;SDS011;2263;54.654;9.410;2022-11-30T08:01:11;74.60;;;36.27;;
4500;SDS011;2263;54.654;9.410;2022-11-30T08:03:42;70.17;;;33.40;;
4500;SDS011;2263;54.654;9.410;2022-11-30T08:06:11;72.60;;;31.37;;
4500;SDS011;2263;54.654;9.410;2022-11-30T08:08:41;78.50;;;33.73;;
4500;SDS011;2263;54.654;9.410;2022-11-30T08:11:11;75.33;;;32.57;;
4500;SDS011;2263;54.654;9.410;2022-11-30T08:13:40;66.57;;;30.70;;
4500;SDS011;2263;54.654;9.410;2022-11-30T08:16:08;78.17;;;36.30;;
4500;SDS011;2263;54.654;9.410;2022-11-30T08:18:38;71.50;;;32.70;;
4500;SDS011;2263;54.654;9.410;2022-11-30T08:21:06;65.90;;;34.37;;
4500;SDS011;2263;54.654;9.410;2022-11-30T08:23:36;75.53;;;32.30;;
4500;SDS011;2263;54.654;9.410;2022-11-30T08:26:06;67.13;;;29.80;;
4500;SDS011;2263;54.654;9.410;2022-11-30T08:28:59;68.77;;;31.70;;
4500;SDS011;2263;54.654;9.410;2022-11-30T08:31:31;72.73;;;33.60;;
4500;SDS011;2263;54.654;9.410;2022-11-30T08:34:01;68.17;;;33.03;;
4500;SDS011;2263;54.654;9.410;2022-11-30T08:36:31;67.43;;;32.30;;
4500;SDS011;2263;54.654;9.410;2022-11-30T08:38:59;64.80;;;31.67;;
4500;SDS011;2263;54.654;9.410;2022-11-30T08:41:28;80.43;;;35.63;;
4500;SDS011;2263;54.654;9.410;2022-11-30T08:43:55;74.50;;;32.43;;
4500;SDS011;2263;54.654;9.410;2022-11-30T08:46:23;72.03;;;31.30;;
4500;SDS011;2263;54.654;9.410;2022-11-30T08:49:11;67.37;;;31.33;;
4500;SDS011;2263;54.654;9.410;2022-11-30T08:51:48;62.83;;;30.63;;
4500;SDS011;2263;54.654;9.410;2022-11-30T08:54:36;71.80;;;32.73;;
4500;SDS011;2263;54.654;9.410;2022-11-30T08:57:05;59.17;;;29.80;;
4500;SDS011;2263;54.654;9.410;2022-11-30T08:59:32;68.20;;;31.67;;
4500;SDS011;2263;54.654;9.410;2022-11-30T09:01:59;63.33;;;30.97;;
4500;SDS011;2263;54.654;9.410;2022-11-30T09:04:26;69.13;;;33.70;;
4500;SDS011;2263;54.654;9.410;2022-11-30T09:06:55;65.20;;;32.40;;
4500;SDS011;2263;54.654;9.410;2022-11-30T09:09:24;71.70;;;31.30;;
4500;SDS011;2263;54.654;9.410;2022-11-30T09:11:52;71.07;;;32.43;;
4500;SDS011;2263;54.654;9.410;2022-11-30T09:14:19;62.53;;;30.50;;
4500;SDS011;2263;54.654;9.410;2022-11-30T09:16:46;74.87;;;34.67;;
4500;SDS011;2263;54.654;9.410;2022-11-30T09:19:13;66.70;;;31.30;;
4500;SDS011;2263;54.654;9.410;2022-11-30T09:21:40;70.27;;;32.90;;
4500;SDS011;2263;54.654;9.410;2022-11-30T09:24:16;71.77;;;33.43;;
4500;SDS011;2263;54.654;9.410;2022-11-30T09:26:43;77.03;;;30.40;;
4500;SDS011;2263;54.654;9.410;2022-11-30T09:29:11;63.67;;;30.80;;
4500;SDS011;2263;54.654;9.410;2022-11-30T09:31:38;63.10;;;32.27;;
4500;SDS011;2263;54.654;9.410;2022-11-30T09:34:05;68.47;;;33.47;;
4500;SDS011;2263;54.654;9.410;2022-11-30T09:36:32;69.83;;;32.90;;
4500;SDS011;2263;54.654;9.410;2022-11-30T09:38:59;64.50;;;31.30;;
4500;SDS011;2263;54.654;9.410;2022-11-30T09:49:54;67.23;;;30.70;;
4500;SDS011;2263;54.654;9.410;2022-11-30T09:52:27;68.07;;;32.67;;
4500;SDS011;2263;54.654;9.410;2022-11-30T09:55:04;68.73;;;30.43;;
4500;SDS011;2263;54.654;9.410;2022-11-30T10:02:47;73.33;;;33.50;;
4500;SDS011;2263;54.654;9.410;2022-11-30T10:05:26;67.93;;;32.00;;
4500;SDS011;2263;54.654;9.410;2022-11-30T10:22:12;78.07;;;31.47;;
4500;SDS011;2263;54.654;9.410;2022-11-30T10:28:14;62.17;;;29.60;;
4500;SDS011;2263;54.654;9.410;2022-11-30T10:31:06;71.87;;;31.70;;
4500;SDS011;2263;54.654;9.410;2022-11-30T10:33:39;72.30;;;32.87;;
4500;SDS011;2263;54.654;9.410;2022-11-30T10:36:41;61.53;;;30.50;;
4500;SDS011;2263;54.654;9.410;2022-11-30T10:39:29;80.27;;;37.07;;
4500;SDS011;2263;54.654;9.410;2022-11-30T10:42:07;66.63;;;31.30;;
4500;SDS011;2263;54.654;9.410;2022-11-30T10:44:41;63.43;;;29.17;;
4500;SDS011;2263;54.654;9.410;2022-11-30T10:47:16;65.77;;;29.33;;
4500;SDS011;2263;54.654;9.410;2022-11-30T10:49:48;73.40;;;32.40;;
4500;SDS011;2263;54.654;9.410;2022-11-30T10:52:17;66.90;;;32.10;;
4500;SDS011;2263;54.654;9.410;2022-11-30T10:54:54;77.27;;;35.13;;
4500;SDS011;2263;54.654;9.410;2022-11-30T10:57:30;75.63;;;33.83;;
4500;SDS011;2263;54.654;9.410;2022-11-30T10:59:59;76.13;;;34.10;;
4500;SDS011;2263;54.654;9.410;2022-11-30T11:02:49;73.43;;;32.37;;
4500;SDS011;2263;54.654;9.410;2022-11-30T11:13:39;69.80;;;33.70;;
4500;SDS011;2263;54.654;9.410;2022-11-30T11:16:10;73.90;;;33.60;;
4500;SDS011;2263;54.654;9.410;2022-11-30T11:18:52;71.97;;;34.97;;
4500;SDS011;2263;54.654;9.410;2022-11-30T11:21:21;74.17;;;34.17;;
4500;SDS011;2263;54.654;9.410;2022-11-30T11:23:50;68.47;;;34.47;;
4500;SDS011;2263;54.654;9.410;2022-11-30T11:28:49;75.77;;;32.83;;
4500;SDS011;2263;54.654;9.410;2022-11-30T11:34:21;78.60;;;32.97;;
4500;SDS011;2263;54.654;9.410;2022-11-30T11:37:09;73.63;;;33.13;;
4500;SDS011;2263;54.654;9.410;2022-11-30T11:39:42;64.83;;;32.93;;
4500;SDS011;2263;54.654;9.410;2022-11-30T11:42:20;71.47;;;32.13;;
4500;SDS011;2263;54.654;9.410;2022-11-30T11:44:49;67.93;;;31.70;;
4500;SDS011;2263;54.654;9.410;2022-11-30T11:47:22;74.63;;;36.40;;
4500;SDS011;2263;54.654;9.410;2022-11-30T11:50:22;79.37;;;34.57;;
4500;SDS011;2263;54.654;9.410;2022-11-30T11:53:13;77.83;;;32.53;;
4500;SDS011;2263;54.654;9.410;2022-11-30T11:55:59;73.03;;;32.20;;
4500;SDS011;2263;54.654;9.410;2022-11-30T12:01:06;73.70;;;33.27;;
4500;SDS011;2263;54.654;9.410;2022-11-30T12:04:15;73.80;;;30.50;;
4500;SDS011;2263;54.654;9.410;2022-11-30T12:07:08;69.37;;;33.37;;
4500;SDS011;2263;54.654;9.410;2022-11-30T12:09:58;71.67;;;31.90;;
4500;SDS011;2263;54.654;9.410;2022-11-30T12:12:28;76.77;;;37.07;;
4500;SDS011;2263;54.654;9.410;2022-11-30T12:14:55;74.37;;;32.47;;
4500;SDS011;2263;54.654;9.410;2022-11-30T12:17:33;71.40;;;32.43;;
4500;SDS011;2263;54.654;9.410;2022-11-30T12:20:22;69.07;;;32.90;;
4500;SDS011;2263;54.654;9.410;2022-11-30T12:25:24;77.53;;;35.67;;
4500;SDS011;2263;54.654;9.410;2022-11-30T12:41:40;79.63;;;34.77;;
4500;SDS011;2263;54.654;9.410;2022-11-30T12:50:10;77.73;;;33.47;;
4500;SDS011;2263;54.654;9.410;2022-11-30T12:55:39;78.53;;;32.60;;
4500;SDS011;2263;54.654;9.410;2022-11-30T13:06:36;74.73;;;35.30;;
4500;SDS011;2263;54.654;9.410;2022-11-30T13:12:01;86.50;;;37.33;;
4500;SDS011;2263;54.654;9.410;2022-11-30T13:15:06;88.30;;;36.37;;
4500;SDS011;2263;54.654;9.410;2022-11-30T13:17:41;81.17;;;32.53;;
4500;SDS011;2263;54.654;9.410;2022-11-30T13:22:51;76.43;;;33.70;;
4500;SDS011;2263;54.654;9.410;2022-11-30T13:36:38;75.53;;;33.43;;
4500;SDS011;2263;54.654;9.410;2022-11-30T13:41:48;81.30;;;36.33;;
4500;SDS011;2263;54.654;9.410;2022-11-30T13:44:38;88.70;;;37.53;;
4500;SDS011;2263;54.654;9.410;2022-11-30T13:49:53;88.90;;;37.47;;
4500;SDS011;2263;54.654;9.410;2022-11-30T13:58:03;83.67;;;35.83;;
4500;SDS011;2263;54.654;9.410;2022-11-30T14:09:13;79.47;;;33.50;;
4500;SDS011;2263;54.654;9.410;2022-11-30T14:11:44;84.90;;;35.70;;
4500;SDS011;2263;54.654;9.410;2022-11-30T14:17:22;84.53;;;35.17;;
4500;SDS011;2263;54.654;9.410;2022-11-30T14:19:58;84.23;;;36.23;;
4500;SDS011;2263;54.654;9.410;2022-11-30T14:22:33;85.70;;;37.27;;
4500;SDS011;2263;54.654;9.410;2022-11-30T14:25:11;82.60;;;34.90;;
4500;SDS011;2263;54.654;9.410;2022-11-30T14:27:40;79.83;;;34.37;;
4500;SDS011;2263;54.654;9.410;2022-11-30T14:30:14;74.13;;;33.93;;
4500;SDS011;2263;54.654;9.410;2022-11-30T14:32:47;74.87;;;32.23;;
4500;SDS011;2263;54.654;9.410;2022-11-30T14:35:27;83.90;;;34.90;;
4500;SDS011;2263;54.654;9.410;2022-11-30T14:37:57;75.30;;;32.97;;
4500;SDS011;2263;54.654;9.410;2022-11-30T14:40:27;77.07;;;35.80;;
4500;SDS011;2263;54.654;9.410;2022-11-30T14:42:56;76.10;;;34.13;;
4500;SDS011;2263;54.654;9.410;2022-11-30T14:45:26;69.17;;;30.53;;
4500;SDS011;2263;54.654;9.410;2022-11-30T14:48:05;70.43;;;32.77;;
4500;SDS011;2263;54.654;9.410;2022-11-30T14:50:41;79.93;;;34.30;;
4500;SDS011;2263;54.654;9.410;2022-11-30T14:53:26;83.23;;;33.20;;
4500;SDS011;2263;54.654;9.410;2022-11-30T14:56:23;80.47;;;33.73;;
4500;SDS011;2263;54.654;9.410;2022-11-30T15:01:43;76.90;;;32.70;;
4500;SDS011;2263;54.654;9.410;2022-11-30T15:04:12;84.73;;;34.10;;
4500;SDS011;2263;54.654;9.410;2022-11-30T15:06:42;76.10;;;34.87;;
4500;SDS011;2263;54.654;9.410;2022-11-30T15:09:16;82.23;;;32.43;;
4500;SDS011;2263;54.654;9.410;2022-11-30T15:11:47;81.13;;;34.50;;
4500;SDS011;2263;54.654;9.410;2022-11-30T15:14:16;80.53;;;33.57;;
4500;SDS011;2263;54.654;9.410;2022-11-30T15:16:47;75.03;;;33.17;;
4500;SDS011;2263;54.654;9.410;2022-11-30T15:21:53;67.93;;;31.87;;
4500;SDS011;2263;54.654;9.410;2022-11-30T15:24:21;79.27;;;34.70;;
4500;SDS011;2263;54.654;9.410;2022-11-30T15:26:59;72.90;;;33.83;;
4500;SDS011;2263;54.654;9.410;2022-11-30T15:29:37;72.13;;;31.57;;
4500;SDS011;2263;54.654;9.410;2022-11-30T15:32:15;74.03;;;33.33;;
4500;SDS011;2263;54.654;9.410;2022-11-30T15:34:48;77.07;;;32.60;;
4500;SDS011;2263;54.654;9.410;2022-11-30T15:37:29;70.63;;;33.07;;
4500;SDS011;2263;54.654;9.410;2022-11-30T15:39:59;76.00;;;32.70;;
4500;SDS011;2263;54.654;9.410;2022-11-30T15:42:32;72.23;;;31.70;;
4500;SDS011;2263;54.654;9.410;2022-11-30T15:47:56;76.13;;;34.20;;
4500;SDS011;2263;54.654;9.410;2022-11-30T15:52:56;65.73;;;30.73;;
4500;SDS011;2263;54.654;9.410;2022-11-30T15:55:44;73.07;;;28.17;;
4500;SDS011;2263;54.654;9.410;2022-11-30T16:03:56;72.93;;;31.03;;
4500;SDS011;2263;54.654;9.410;2022-11-30T16:06:25;59.73;;;28.97;;
4500;SDS011;2263;54.654;9.410;2022-11-30T16:08:59;72.47;;;30.43;;
4500;SDS011;2263;54.654;9.410;2022-11-30T16:11:33;66.30;;;31.10;;
4500;SDS011;2263;54.654;9.410;2022-11-30T16:14:00;66.13;;;27.67;;
4500;SDS011;2263;54.654;9.410;2022-11-30T16:16:29;64.10;;;32.00;;
4500;SDS011;2263;54.654;9.410;2022-11-30T16:18:57;74.57;;;32.30;;
4500;SDS011;2263;54.654;9.410;2022-11-30T16:21:24;76.77;;;32.40;;
4500;SDS011;2263;54.654;9.410;2022-11-30T16:23:52;65.70;;;30.60;;
4500;SDS011;2263;54.654;9.410;2022-11-30T16:26:19;70.57;;;32.90;;
4500;SDS011;2263;54.654;9.410;2022-11-30T16:29:06;64.57;;;28.80;;
4500;SDS011;2263;54.654;9.410;2022-11-30T16:31:33;64.13;;;28.87;;
4500;SDS011;2263;54.654;9.410;2022-11-30T16:34:02;62.67;;;29.73;;
4500;SDS011;2263;54.654;9.410;2022-11-30T16:36:29;65.40;;;29.00;;
4500;SDS011;2263;54.654;9.410;2022-11-30T16:38:56;60.27;;;28.70;;
4500;SDS011;2263;54.654;9.410;2022-11-30T16:41:24;68.17;;;29.87;;
4500;SDS011;2263;54.654;9.410;2022-11-30T16:43:53;62.97;;;29.83;;
4500;SDS011;2263;54.654;9.410;2022-11-30T16:46:22;75.13;;;31.80;;
4500;SDS011;2263;54.654;9.410;2022-11-30T16:48:53;69.50;;;31.27;;
4500;SDS011;2263;54.654;9.410;2022-11-30T16:51:30;61.63;;;29.70;;
4500;SDS011;2263;54.654;9.410;2022-11-30T16:54:00;67.20;;;29.47;;
4500;SDS011;2263;54.654;9.410;2022-11-30T16:56:27;78.23;;;31.17;;
4500;SDS011;2263;54.654;9.410;2022-11-30T16:58:54;72.17;;;32.03;;
4500;SDS011;2263;54.654;9.410;2022-11-30T17:04:14;72.40;;;30.67;;
4500;SDS011;2263;54.654;9.410;2022-11-30T17:06:42;69.37;;;32.20;;
4500;SDS011;2263;54.654;9.410;2022-11-30T17:09:16;67.60;;;30.10;;
4500;SDS011;2263;54.654;9.410;2022-11-30T17:11:43;72.03;;;32.90;;
4500;SDS011;2263;54.654;9.410;2022-11-30T17:14:13;64.87;;;30.30;;
4500;SDS011;2263;54.654;9.410;2022-11-30T17:16:44;73.73;;;32.70;;
4500;SDS011;2263;54.654;9.410;2022-11-30T17:19:12;69.80;;;31.57;;
4500;SDS011;2263;54.654;9.410;2022-11-30T17:21:39;66.37;;;30.87;;
4500;SDS011;2263;54.654;9.410;2022-11-30T17:24:10;69.50;;;32.40;;
4500;SDS011;2263;54.654;9.410;2022-11-30T17:26:37;70.90;;;32.57;;
4500;SDS011;2263;54.654;9.410;2022-11-30T17:29:04;66.53;;;32.53;;
4500;SDS011;2263;54.654;9.410;2022-11-30T17:31:32;68.20;;;34.37;;
4500;SDS011;2263;54.654;9.410;2022-11-30T17:33:59;62.60;;;29.90;;
4500;SDS011;2263;54.654;9.410;2022-11-30T17:36:26;68.87;;;31.43;;
4500;SDS011;2263;54.654;9.410;2022-11-30T17:38:54;65.43;;;30.70;;
4500;SDS011;2263;54.654;9.410;2022-11-30T17:41:24;69.13;;;31.40;;
4500;SDS011;2263;54.654;9.410;2022-11-30T17:43:54;71.97;;;32.07;;
4500;SDS011;2263;54.654;9.410;2022-11-30T17:46:33;70.20;;;32.50;;